createdAt,value
2018-06-16T00:01:45.528Z,22.90
2018-06-16T00:04:14.661Z,14.87
2018-06-16T00:06:43.792Z,11.50
2018-06-16T00:09:12.823Z,17.50
2018-06-16T00:11:41.879Z,12.90
2018-06-16T00:14:10.711Z,16.67
2018-06-16T00:16:39.825Z,14.30
2018-06-16T00:19:08.947Z,16.50
2018-06-16T00:21:38.187Z,15.20
2018-06-16T00:24:06.984Z,15.90
2018-06-16T00:26:36.340Z,24.53
2018-06-16T00:29:05.417Z,13.03
2018-06-16T00:31:34.320Z,14.70
2018-06-16T00:34:03.777Z,14.10
2018-06-16T00:36:33.218Z,19.50
2018-06-16T00:39:02.130Z,16.07
2018-06-16T00:41:31.413Z,18.30
2018-06-16T00:44:00.774Z,9.10
2018-06-16T00:46:29.865Z,14.43
2018-06-16T00:48:59.054Z,16.40
2018-06-16T00:51:27.846Z,25.67
2018-06-16T00:53:56.655Z,22.87
2018-06-16T00:56:25.834Z,19.13
2018-06-16T00:58:55.087Z,15.10
2018-06-16T01:01:24.598Z,10.80
2018-06-16T01:03:53.825Z,9.40
2018-06-16T01:06:22.655Z,15.27
2018-06-16T01:08:51.731Z,12.33
2018-06-16T01:11:20.915Z,19.47
2018-06-16T01:13:49.808Z,17.63
2018-06-16T01:16:18.988Z,11.67
2018-06-16T01:18:48.143Z,13.30
2018-06-16T01:21:17.525Z,11.73
2018-06-16T01:23:46.851Z,20.53
2018-06-16T01:26:15.811Z,23.07
2018-06-16T01:28:45.000Z,14.03
2018-06-16T01:31:14.103Z,17.80
2018-06-16T01:33:43.678Z,13.97
2018-06-16T01:36:12.489Z,24.80
2018-06-16T01:38:41.672Z,18.50
2018-06-16T01:41:10.512Z,14.93
2018-06-16T01:43:40.005Z,17.20
2018-06-16T01:46:09.007Z,23.60
2018-06-16T01:48:38.109Z,16.40
2018-06-16T01:51:07.292Z,18.57
2018-06-16T01:53:36.135Z,19.30
2018-06-16T01:56:05.284Z,31.57
2018-06-16T01:58:34.189Z,15.03
2018-06-16T02:01:03.144Z,14.20
2018-06-16T02:03:32.605Z,21.60
2018-06-16T02:06:02.051Z,23.77
2018-06-16T02:08:31.505Z,14.87
2018-06-16T02:11:00.608Z,14.00
2018-06-16T02:13:30.087Z,14.83
2018-06-16T02:15:59.274Z,11.73
2018-06-16T02:18:28.404Z,30.03
2018-06-16T02:20:57.571Z,21.67
2018-06-16T02:23:26.764Z,11.70
2018-06-16T02:25:55.944Z,16.30
2018-06-16T02:28:25.050Z,19.83
2018-06-16T02:30:54.205Z,16.67
2018-06-16T02:33:23.040Z,16.10
2018-06-16T02:35:52.047Z,13.27
2018-06-16T02:38:21.842Z,27.63
2018-06-16T02:40:51.429Z,24.30
2018-06-16T02:43:20.560Z,13.10
2018-06-16T02:45:49.628Z,14.70
2018-06-16T02:48:19.326Z,17.30
2018-06-16T02:50:48.470Z,15.40
2018-06-16T02:53:17.759Z,15.00
2018-06-16T02:55:46.926Z,16.30
2018-06-16T02:58:15.780Z,23.07
2018-06-16T03:00:45.077Z,14.13
2018-06-16T03:03:15.055Z,21.17
2018-06-16T03:05:44.309Z,20.00
2018-06-16T03:08:13.797Z,27.60
2018-06-16T03:10:43.299Z,18.73
2018-06-16T03:13:12.129Z,13.70
2018-06-16T03:15:41.277Z,23.20
2018-06-16T03:18:10.758Z,19.10
2018-06-16T03:20:40.073Z,18.67
2018-06-16T03:23:09.335Z,17.37
2018-06-16T03:25:38.588Z,21.13
2018-06-16T03:28:07.800Z,18.93
2018-06-16T03:30:37.583Z,15.27
2018-06-16T03:33:07.114Z,15.43
2018-06-16T03:35:36.502Z,23.63
2018-06-16T03:38:05.456Z,19.20
2018-06-16T03:40:34.619Z,20.27
2018-06-16T03:43:04.255Z,17.70
2018-06-16T03:45:33.511Z,21.80
2018-06-16T03:48:02.557Z,17.93
2018-06-16T03:50:32.163Z,18.10
2018-06-16T03:53:15.595Z,22.67
2018-06-16T03:55:44.911Z,21.53
2018-06-16T03:58:14.185Z,20.40
2018-06-16T04:00:43.573Z,21.40
2018-06-16T04:03:12.456Z,26.10
2018-06-16T04:05:41.367Z,23.83
2018-06-16T04:08:10.775Z,19.80
2018-06-16T04:10:39.932Z,21.10
2018-06-16T04:13:09.461Z,19.13
2018-06-16T04:15:38.704Z,19.80
2018-06-16T04:18:07.672Z,19.63
2018-06-16T04:20:36.531Z,25.00
2018-06-16T04:23:06.157Z,32.97
2018-06-16T04:25:35.322Z,18.00
2018-06-16T04:28:05.256Z,18.77
2018-06-16T04:30:34.416Z,20.30
2018-06-16T04:33:03.926Z,24.07
2018-06-16T04:35:33.129Z,20.17
2018-06-16T04:38:02.788Z,20.97
2018-06-16T04:40:31.945Z,17.63
2018-06-16T04:43:01.091Z,21.30
2018-06-16T04:45:29.958Z,18.67
2018-06-16T04:47:59.275Z,37.13
2018-06-16T04:50:28.483Z,18.80
2018-06-16T04:52:58.242Z,25.87
2018-06-16T04:55:27.435Z,18.70
2018-06-16T04:57:56.648Z,23.50
2018-06-16T05:00:25.765Z,18.17
2018-06-16T05:02:55.342Z,17.70
2018-06-16T05:05:24.315Z,16.53
2018-06-16T05:07:53.479Z,16.53
2018-06-16T05:10:22.328Z,19.13
2018-06-16T05:12:51.676Z,18.30
2018-06-16T05:15:20.604Z,14.27
2018-06-16T05:17:49.895Z,19.53
2018-06-16T05:20:19.190Z,20.30
2018-06-16T05:22:48.116Z,19.20
2018-06-16T05:25:17.188Z,15.90
2018-06-16T05:27:46.194Z,24.63
2018-06-16T05:30:15.396Z,26.60
2018-06-16T05:32:44.905Z,16.63
2018-06-16T05:35:14.191Z,18.20
2018-06-16T05:37:43.505Z,19.80
2018-06-16T05:40:13.568Z,23.80
2018-06-16T05:42:43.149Z,19.83
2018-06-16T05:45:12.123Z,21.50
2018-06-16T05:47:40.988Z,24.80
2018-06-16T05:50:09.890Z,21.03
2018-06-16T05:52:38.816Z,19.63
2018-06-16T05:55:08.005Z,22.33
2018-06-16T05:57:37.248Z,22.53
2018-06-16T06:00:08.548Z,23.07
2018-06-16T06:02:39.156Z,29.40
2018-06-16T06:05:09.678Z,28.80
2018-06-16T06:07:39.985Z,20.87
2018-06-16T06:10:10.069Z,18.00
2018-06-16T06:12:40.381Z,22.63
2018-06-16T06:15:09.670Z,23.87
2018-06-16T06:17:43.801Z,23.27
2018-06-16T06:20:13.438Z,22.10
2018-06-16T06:22:42.406Z,28.40
2018-06-16T06:25:11.432Z,17.37
2018-06-16T06:27:40.855Z,23.77
2018-06-16T06:30:10.140Z,22.00
2018-06-16T06:32:39.915Z,18.97
2018-06-16T06:35:10.196Z,26.10
2018-06-16T06:37:39.879Z,23.20
2018-06-16T06:40:09.651Z,23.27
2018-06-16T06:42:39.092Z,22.77
2018-06-16T06:45:08.154Z,27.17
2018-06-16T06:47:37.183Z,24.20
2018-06-16T06:50:06.966Z,23.33
2018-06-16T06:52:36.313Z,26.03
2018-06-16T06:55:05.744Z,26.40
2018-06-16T06:57:34.865Z,22.17
2018-06-16T07:00:03.913Z,24.57
2018-06-16T07:02:33.881Z,26.07
2018-06-16T07:05:02.825Z,20.63
2018-06-16T07:07:32.373Z,28.53
2018-06-16T07:10:01.675Z,29.93
2018-06-16T07:12:30.920Z,25.23
2018-06-16T07:15:00.387Z,30.20
2018-06-16T07:17:29.687Z,31.97
2018-06-16T07:19:59.040Z,23.30
2018-06-16T07:22:29.305Z,29.90
2018-06-16T07:24:58.842Z,37.40
2018-06-16T07:27:28.166Z,28.63
2018-06-16T07:29:57.610Z,22.73
2018-06-16T07:32:27.604Z,23.70
2018-06-16T07:34:57.246Z,25.60
2018-06-16T07:37:27.169Z,35.77
2018-06-16T07:39:56.617Z,33.33
2018-06-16T07:42:25.701Z,28.63
2018-06-16T07:44:55.002Z,35.00
2018-06-16T07:47:23.906Z,28.03
2018-06-16T07:49:54.042Z,34.40
2018-06-16T07:52:23.931Z,34.43
2018-06-16T07:54:53.151Z,23.13
2018-06-16T07:57:22.779Z,33.43
2018-06-16T07:59:52.153Z,35.17
2018-06-16T08:02:21.900Z,36.70
2018-06-16T08:04:51.250Z,30.73
2018-06-16T08:07:21.666Z,36.73
2018-06-16T08:09:50.669Z,32.97
2018-06-16T08:12:21.087Z,40.10
2018-06-16T08:14:51.452Z,42.20
2018-06-16T08:17:20.589Z,31.70
2018-06-16T08:19:50.110Z,31.93
2018-06-16T08:22:20.594Z,28.77
2018-06-16T08:24:50.416Z,41.70
2018-06-16T08:27:19.470Z,44.60
2018-06-16T08:29:49.493Z,30.37
2018-06-16T08:32:19.545Z,34.80
2018-06-16T08:34:48.836Z,29.10
2018-06-16T08:37:18.540Z,35.60
2018-06-16T08:39:47.914Z,36.10
2018-06-16T08:42:16.824Z,32.90
2018-06-16T08:44:45.806Z,31.33
2018-06-16T08:47:15.324Z,34.30
2018-06-16T08:49:44.660Z,39.00
2018-06-16T08:52:13.703Z,29.57
2018-06-16T08:54:43.452Z,26.03
2018-06-16T08:57:12.395Z,23.40
2018-06-16T08:59:41.846Z,30.27
2018-06-16T09:02:10.928Z,29.60
2018-06-16T09:04:40.038Z,32.00
2018-06-16T09:07:08.889Z,34.90
2018-06-16T09:09:39.503Z,33.13
2018-06-16T09:12:09.018Z,26.33
2018-06-16T09:14:37.914Z,31.13
2018-06-16T09:17:07.208Z,30.10
2018-06-16T09:19:36.682Z,35.70
2018-06-16T09:22:05.612Z,24.63
2018-06-16T09:24:34.430Z,30.43
2018-06-16T09:27:03.400Z,45.10
2018-06-16T09:29:32.284Z,29.87
2018-06-16T09:32:01.137Z,30.17
2018-06-16T09:34:29.958Z,30.73
2018-06-16T09:36:59.217Z,32.20
2018-06-16T09:39:28.396Z,36.27
2018-06-16T09:41:57.285Z,36.80
2018-06-16T09:44:26.480Z,40.90
2018-06-16T09:46:55.579Z,35.00
2018-06-16T09:49:25.099Z,36.30
2018-06-16T09:51:54.085Z,38.90
2018-06-16T09:54:23.296Z,38.23
2018-06-16T09:56:52.192Z,36.20
2018-06-16T09:59:21.152Z,42.53
2018-06-16T10:01:50.292Z,31.80
2018-06-16T10:04:19.394Z,34.23
2018-06-16T10:06:49.625Z,36.07
2018-06-16T10:09:18.897Z,37.43
2018-06-16T10:11:47.924Z,39.90
2018-06-16T10:14:16.872Z,32.73
2018-06-16T10:16:46.122Z,30.90
2018-06-16T10:19:15.478Z,36.17
2018-06-16T10:21:45.100Z,36.00
2018-06-16T10:24:14.487Z,36.87
2018-06-16T10:26:43.315Z,37.87
2018-06-16T10:29:13.368Z,40.37
2018-06-16T10:31:42.633Z,31.60
2018-06-16T10:34:11.689Z,36.70
2018-06-16T10:36:40.568Z,33.90
2018-06-16T10:39:10.310Z,42.77
2018-06-16T10:41:39.769Z,35.67
2018-06-16T10:44:08.731Z,35.50
2018-06-16T10:46:37.781Z,37.63
2018-06-16T10:49:06.993Z,32.67
2018-06-16T10:51:35.800Z,29.00
2018-06-16T10:54:04.735Z,29.87
2018-06-16T10:59:34.478Z,30.23
2018-06-16T11:02:03.648Z,31.50
2018-06-16T11:04:33.335Z,32.13
2018-06-16T11:07:02.389Z,32.90
2018-06-16T11:09:31.376Z,28.13
2018-06-16T11:12:00.204Z,28.97
2018-06-16T11:14:30.028Z,34.07
2018-06-16T11:16:59.409Z,28.10
2018-06-16T11:19:28.532Z,22.93
2018-06-16T11:21:57.407Z,20.73
2018-06-16T11:24:26.305Z,35.03
2018-06-16T11:26:55.787Z,22.90
2018-06-16T11:29:24.702Z,19.73
2018-06-16T11:31:54.518Z,31.00
2018-06-16T11:34:23.348Z,22.47
2018-06-16T11:36:52.185Z,20.13
2018-06-16T11:39:21.610Z,27.73
2018-06-16T11:41:51.779Z,22.73
2018-06-16T11:44:25.715Z,21.27
2018-06-16T11:46:55.104Z,23.00
2018-06-16T11:49:24.983Z,19.07
2018-06-16T11:51:54.252Z,15.30
2018-06-16T11:54:23.543Z,18.97
2018-06-16T11:56:53.401Z,16.33
2018-06-16T11:59:22.258Z,15.50
2018-06-16T12:01:51.928Z,24.17
2018-06-16T12:04:21.495Z,21.40
2018-06-16T12:06:51.073Z,19.17
2018-06-16T12:09:19.962Z,28.57
2018-06-16T12:11:51.273Z,22.87
2018-06-16T12:14:20.125Z,18.03
2018-06-16T12:16:49.001Z,16.90
2018-06-16T12:19:18.812Z,21.97
2018-06-16T12:21:47.704Z,17.43
2018-06-16T12:24:16.962Z,19.90
2018-06-16T12:26:46.091Z,16.00
2018-06-16T12:29:15.289Z,21.63
2018-06-16T12:31:44.255Z,14.90
2018-06-16T12:34:13.393Z,27.83
2018-06-16T12:36:42.261Z,20.47
2018-06-16T12:39:12.116Z,24.37
2018-06-16T12:41:41.002Z,18.20
2018-06-16T12:44:10.257Z,18.03
2018-06-16T12:46:39.571Z,29.80
2018-06-16T12:49:08.663Z,17.90
2018-06-16T12:51:39.716Z,19.20
2018-06-16T12:54:08.832Z,25.60
2018-06-16T12:56:38.392Z,19.10
2018-06-16T12:59:07.509Z,21.33
2018-06-16T13:01:36.970Z,21.70
2018-06-16T13:04:05.843Z,16.47
2018-06-16T13:06:34.723Z,19.33
2018-06-16T13:09:04.787Z,21.73
2018-06-16T13:11:34.219Z,21.13
2018-06-16T13:14:03.727Z,21.53
2018-06-16T13:16:32.642Z,16.17
2018-06-16T13:19:01.753Z,21.70
2018-06-16T13:21:30.877Z,25.00
2018-06-16T13:24:01.613Z,20.33
2018-06-16T13:26:31.126Z,24.27
2018-06-16T13:29:00.619Z,16.10
2018-06-16T13:31:29.501Z,22.57
2018-06-16T13:33:58.664Z,24.30
2018-06-16T13:36:28.011Z,32.27
2018-06-16T13:38:56.882Z,22.87
2018-06-16T13:41:26.304Z,20.43
2018-06-16T13:43:55.197Z,23.33
2018-06-16T13:46:24.703Z,16.17
2018-06-16T13:48:53.961Z,16.97
2018-06-16T13:51:23.244Z,13.40
2018-06-16T13:53:52.794Z,15.83
2018-06-16T13:56:22.235Z,16.03
2018-06-16T13:58:51.740Z,12.20
2018-06-16T14:01:20.704Z,16.83
2018-06-16T14:03:49.851Z,15.30
2018-06-16T14:06:19.161Z,8.00
2018-06-16T14:08:48.108Z,11.70
2018-06-16T14:11:17.458Z,16.27
2018-06-16T14:13:47.445Z,11.57
2018-06-16T14:16:17.252Z,12.20
2018-06-16T14:18:46.735Z,12.67
2018-06-16T14:21:15.885Z,10.23
2018-06-16T14:23:45.001Z,7.70
2018-06-16T14:26:13.901Z,10.50
2018-06-16T14:28:43.141Z,14.57
2018-06-16T14:31:11.954Z,14.37
2018-06-16T14:33:41.072Z,13.53
2018-06-16T14:36:10.204Z,4.87
2018-06-16T14:38:39.628Z,6.90
2018-06-16T14:41:08.782Z,6.57
2018-06-16T14:43:37.930Z,6.60
2018-06-16T14:46:06.789Z,6.20
2018-06-16T14:48:35.923Z,9.27
2018-06-16T14:51:04.830Z,5.50
2018-06-16T14:53:34.082Z,7.73
2018-06-16T14:56:03.349Z,9.50
2018-06-16T14:58:32.151Z,7.93
2018-06-16T15:01:01.663Z,7.53
2018-06-16T15:03:31.362Z,5.00
2018-06-16T15:06:00.284Z,10.80
2018-06-16T15:08:29.444Z,5.37
2018-06-16T15:10:58.815Z,10.80
2018-06-16T15:13:27.922Z,6.77
2018-06-16T15:15:57.048Z,5.77
2018-06-16T15:18:26.492Z,5.17
2018-06-16T15:20:56.269Z,26.00
2018-06-16T15:23:25.420Z,7.77
2018-06-16T15:25:54.259Z,4.20
2018-06-16T15:28:23.425Z,11.20
2018-06-16T15:30:52.676Z,7.53
2018-06-16T15:33:22.245Z,6.73
2018-06-16T15:35:51.436Z,5.70
2018-06-16T15:38:20.356Z,9.30
2018-06-16T15:40:49.863Z,5.47
2018-06-16T15:43:18.646Z,9.23
2018-06-16T15:45:47.502Z,5.80
2018-06-16T15:48:16.388Z,8.67
2018-06-16T15:50:46.201Z,10.93
2018-06-16T15:53:15.399Z,5.83
2018-06-16T15:55:44.816Z,12.63
2018-06-16T15:58:13.888Z,13.50
2018-06-16T16:00:43.081Z,7.20
2018-06-16T16:03:11.933Z,7.70
2018-06-16T16:05:41.279Z,6.40
2018-06-16T16:08:10.348Z,12.40
2018-06-16T16:10:39.663Z,16.33
2018-06-16T16:13:08.553Z,13.03
2018-06-16T16:15:38.419Z,9.63
2018-06-16T16:18:07.624Z,9.00
2018-06-16T16:20:36.467Z,8.70
2018-06-16T16:23:05.355Z,8.63
2018-06-16T16:25:34.835Z,7.33
2018-06-16T16:28:03.691Z,7.73
2018-06-16T16:30:33.016Z,9.47
2018-06-16T16:33:02.203Z,8.50
2018-06-16T16:35:31.411Z,10.43
2018-06-16T16:38:00.250Z,5.73
2018-06-16T16:40:30.362Z,9.23
2018-06-16T16:42:59.430Z,8.83
2018-06-16T16:45:28.587Z,8.33
2018-06-16T16:47:59.569Z,8.33
2018-06-16T16:50:30.318Z,6.10
2018-06-16T16:53:01.422Z,7.53
2018-06-16T16:55:31.975Z,8.13
2018-06-16T16:58:03.283Z,4.80
2018-06-16T17:00:34.603Z,6.77
2018-06-16T17:03:05.135Z,5.00
2018-06-16T17:05:35.654Z,11.00
2018-06-16T17:08:05.742Z,10.43
2018-06-16T17:10:35.569Z,8.20
2018-06-16T17:13:05.707Z,9.30
2018-06-16T17:15:35.015Z,6.23
2018-06-16T17:18:04.457Z,10.70
2018-06-16T17:20:33.690Z,8.23
2018-06-16T17:23:02.553Z,8.73
2018-06-16T17:25:31.600Z,7.83
2018-06-16T17:28:00.692Z,7.77
2018-06-16T17:30:30.145Z,6.00
2018-06-16T17:32:59.326Z,7.70
2018-06-16T17:35:28.211Z,18.50
2018-06-16T17:37:58.598Z,8.33
2018-06-16T17:40:27.418Z,6.10
2018-06-16T17:42:57.094Z,7.27
2018-06-16T17:45:26.047Z,5.03
2018-06-16T17:47:55.241Z,6.30
2018-06-16T17:50:24.728Z,8.63
2018-06-16T17:52:53.809Z,6.70
2018-06-16T17:55:22.658Z,8.67
2018-06-16T17:57:52.424Z,7.70
2018-06-16T18:00:21.612Z,7.10
2018-06-16T18:02:50.872Z,5.93
2018-06-16T18:05:20.264Z,6.90
2018-06-16T18:07:49.154Z,10.10
2018-06-16T18:10:18.018Z,14.80
2018-06-16T18:12:46.978Z,16.13
2018-06-16T18:15:15.876Z,19.83
2018-06-16T18:17:45.141Z,14.43
2018-06-16T18:20:13.937Z,19.77
2018-06-16T18:22:43.013Z,19.07
2018-06-16T18:25:11.962Z,28.67
2018-06-16T18:27:41.074Z,21.30
2018-06-16T18:30:10.717Z,22.00
2018-06-16T18:32:40.209Z,16.73
2018-06-16T18:35:09.360Z,23.80
2018-06-16T18:37:38.467Z,21.43
2018-06-16T18:40:07.437Z,23.40
2018-06-16T18:42:36.235Z,23.30
2018-06-16T18:45:05.368Z,18.33
2018-06-16T18:47:34.533Z,20.67
2018-06-16T18:50:03.369Z,28.97
2018-06-16T18:52:32.638Z,26.30
2018-06-16T18:55:02.158Z,29.03
2018-06-16T18:57:31.677Z,21.80
2018-06-16T19:00:00.830Z,24.33
2018-06-16T19:02:29.675Z,32.53
2018-06-16T19:04:59.091Z,24.73
2018-06-16T19:07:27.953Z,26.80
2018-06-16T19:09:56.971Z,27.37
2018-06-16T19:12:25.833Z,22.53
2018-06-16T19:14:54.909Z,26.90
2018-06-16T19:17:24.077Z,26.37
2018-06-16T19:19:53.305Z,21.13
2018-06-16T19:22:22.507Z,31.90
2018-06-16T19:24:52.604Z,30.53
2018-06-16T19:27:21.450Z,27.33
2018-06-16T19:29:50.545Z,24.40
2018-06-16T19:32:20.150Z,24.70
2018-06-16T19:34:49.593Z,21.33
2018-06-16T19:37:18.709Z,22.27
2018-06-16T19:39:48.132Z,25.97
2018-06-16T19:42:17.473Z,26.40
2018-06-16T19:44:46.405Z,34.60
2018-06-16T19:47:15.821Z,20.23
2018-06-16T19:49:44.935Z,38.67
2018-06-16T19:52:14.001Z,29.33
2018-06-16T19:54:43.415Z,20.97
2018-06-16T19:57:11.492Z,18.07
2018-06-16T19:59:40.771Z,20.13
2018-06-16T20:02:10.230Z,17.73
2018-06-16T20:04:39.098Z,14.17
2018-06-16T20:07:08.196Z,24.13
2018-06-16T20:09:37.372Z,23.93
2018-06-16T20:12:07.158Z,31.63
2018-06-16T20:14:36.934Z,19.90
2018-06-16T20:17:06.327Z,17.50
2018-06-16T20:19:36.143Z,15.83
2018-06-16T20:22:05.384Z,20.13
2018-06-16T20:24:34.398Z,31.03
2018-06-16T20:27:03.688Z,21.67
2018-06-16T20:29:32.521Z,18.47
2018-06-16T20:32:01.931Z,20.50
2018-06-16T20:34:31.932Z,13.57
2018-06-16T20:37:01.240Z,15.10
2018-06-16T20:39:30.520Z,14.03
2018-06-16T20:41:59.896Z,18.73
2018-06-16T20:44:29.083Z,17.37
2018-06-16T20:46:58.581Z,9.27
2018-06-16T20:49:27.403Z,13.63
2018-06-16T20:51:56.281Z,20.27
2018-06-16T20:54:25.932Z,16.67
2018-06-16T20:56:55.497Z,13.00
2018-06-16T20:59:24.330Z,16.70
2018-06-16T21:01:53.162Z,11.57
2018-06-16T21:04:23.123Z,12.60
2018-06-16T21:06:52.736Z,10.83
2018-06-16T21:09:21.939Z,10.03
2018-06-16T21:11:51.583Z,15.57
2018-06-16T21:14:20.704Z,15.67
2018-06-16T21:16:49.588Z,18.67
2018-06-16T21:19:19.054Z,9.20
2018-06-16T21:21:48.307Z,11.10
2018-06-16T21:24:17.138Z,17.43
2018-06-16T21:26:46.277Z,16.03
2018-06-16T21:29:15.622Z,13.50
2018-06-16T21:31:44.394Z,21.63
2018-06-16T21:34:13.275Z,17.30
2018-06-16T21:36:42.150Z,14.23
2018-06-16T21:39:11.654Z,23.33
2018-06-16T21:41:40.997Z,13.67
2018-06-16T21:44:10.221Z,9.70
2018-06-16T21:46:39.504Z,12.60
2018-06-16T21:49:08.861Z,14.90
2018-06-16T21:51:38.584Z,11.37
2018-06-16T21:54:08.710Z,12.37
2018-06-16T21:56:38.107Z,14.33
2018-06-16T21:59:07.326Z,10.60
2018-06-16T22:01:37.643Z,18.07
2018-06-16T22:04:07.354Z,20.67
2018-06-16T22:06:37.043Z,8.13
2018-06-16T22:09:08.898Z,20.67
2018-06-16T22:11:37.892Z,11.10
2018-06-16T22:14:07.125Z,17.13
2018-06-16T22:16:36.362Z,11.00
2018-06-16T22:19:05.704Z,15.03
2018-06-16T22:21:35.287Z,17.43
2018-06-16T22:24:04.136Z,13.80
2018-06-16T22:26:34.870Z,12.57
2018-06-16T22:29:06.408Z,8.10
2018-06-16T22:31:37.086Z,12.90
2018-06-16T22:34:06.642Z,15.50
2018-06-16T22:36:35.957Z,14.67
2018-06-16T22:39:06.932Z,17.33
2018-06-16T22:41:35.880Z,19.30
2018-06-16T22:44:05.370Z,12.57
2018-06-16T22:46:34.227Z,8.33
2018-06-16T22:49:03.643Z,11.23
2018-06-16T22:51:33.582Z,16.13
2018-06-16T22:54:03.297Z,13.10
2018-06-16T22:56:32.933Z,10.67
2018-06-16T22:59:01.890Z,15.97
2018-06-16T23:01:31.127Z,16.00
2018-06-16T23:04:00.803Z,16.53
2018-06-16T23:06:29.991Z,10.73
2018-06-16T23:08:58.842Z,12.13
2018-06-16T23:11:28.854Z,13.23
2018-06-16T23:13:58.232Z,13.03
2018-06-16T23:16:27.569Z,17.73
2018-06-16T23:18:56.800Z,12.50
2018-06-16T23:21:26.068Z,7.57
2018-06-16T23:23:54.955Z,14.30
2018-06-16T23:26:23.957Z,13.07
2018-06-16T23:28:52.891Z,9.63
2018-06-16T23:31:22.555Z,9.93
2018-06-16T23:33:51.741Z,10.43
2018-06-16T23:36:21.208Z,8.13
2018-06-16T23:38:50.228Z,8.30
2018-06-16T23:41:19.153Z,8.33
2018-06-16T23:43:48.127Z,9.33
2018-06-16T23:46:17.525Z,14.90
2018-06-16T23:48:46.867Z,12.23
2018-06-16T23:51:16.032Z,9.43
2018-06-16T23:53:45.255Z,9.20
2018-06-16T23:56:14.612Z,13.57
2018-06-16T23:58:44.380Z,8.50
